St Pete Beach, Florida
Current Conditions -  °F | °C
As of 4:53 AM on Sunday 26 Oct 2014 (Local Time) from KSPG Reporting Station
Clear Clear  
Wind Chill: 68°   Ceiling: Unl
Heat Index: 68°   Visibility: 10mi
Dew Point: 61°   Wind: 5mph
Humidity: 78%   Direction: 20°NNE
Pressure: 29.96"   Gusts: NA
Location:  27.7426°N, 82.7481°W
Report Text: KSPG 260853Z AUTO 02004KT 10SM CLR 20/16 A2996 RMK AO2 SLP144 T02000161 55008
Loading
Personal Weather Stations






























Interactive Weather Map New forecast layout! Learn more

10-Day Weather Forecast

Advertisements
Track Severe Weather on mobile